Terminal Aerodrome Forecast
Issued by NWS

Current Version | Previous Version | Text Only | Print | Product List | Glossary Off
Versions: 1 2 3 4 5 6 7 8 9 10 11 12 13 14 15 16 17 18 19 20 21 22 23 24 25 26

000
FTUS41 KRLX 142100 AAA
TAFCKB
TAF AMD
KCKB 142131Z 1422/1518 17007KT P6SM BKN070 WS020/21025KT
      TEMPO 1422/1423 19011G19KT 4SM -SHRA BKN035
     FM150100 19010G15KT P6SM OVC030
     FM150500 18008KT 4SM -RA BR OVC015
     FM150800 19008KT 2SM -SHRA OVC015
     FM151100 27010KT 2SM -SHRA OVC010
     FM151200 30011KT 2SM -SHRA OVC008
     FM151500 30010KT 2SM -SHRA OVC003
     FM151600 30011G16KT 3SM -SHRA OVC008=

USA.gov is the U.S. government's official web portal to all federal, state and local government web resources and services.